sensor_id;sensor_type;location;lat;lon;timestamp;P1;durP1;ratioP1;P2;durP2;ratioP2
47866;SDS011;33628;50.806;11.586;2023-02-08T00:00:27;64.03;;;24.92;;
47866;SDS011;33628;50.806;11.586;2023-02-08T00:03:02;62.83;;;24.48;;
47866;SDS011;33628;50.806;11.586;2023-02-08T00:05:29;61.35;;;24.25;;
47866;SDS011;33628;50.806;11.586;2023-02-08T00:07:56;60.13;;;25.42;;
47866;SDS011;33628;50.806;11.586;2023-02-08T00:10:22;62.08;;;24.92;;
47866;SDS011;33628;50.806;11.586;2023-02-08T00:12:49;60.72;;;26.30;;
47866;SDS011;33628;50.806;11.586;2023-02-08T00:15:17;70.22;;;26.80;;
47866;SDS011;33628;50.806;11.586;2023-02-08T00:17:44;62.13;;;25.33;;
47866;SDS011;33628;50.806;11.586;2023-02-08T00:20:12;64.15;;;26.52;;
47866;SDS011;33628;50.806;11.586;2023-02-08T00:22:40;73.47;;;28.55;;
47866;SDS011;33628;50.806;11.586;2023-02-08T00:25:07;70.70;;;26.25;;
47866;SDS011;33628;50.806;11.586;2023-02-08T00:27:34;69.05;;;26.63;;
47866;SDS011;33628;50.806;11.586;2023-02-08T00:30:02;61.75;;;25.17;;
47866;SDS011;33628;50.806;11.586;2023-02-08T00:32:29;70.13;;;26.10;;
47866;SDS011;33628;50.806;11.586;2023-02-08T00:34:56;70.75;;;27.10;;
47866;SDS011;33628;50.806;11.586;2023-02-08T00:37:24;67.57;;;25.67;;
47866;SDS011;33628;50.806;11.586;2023-02-08T00:39:50;70.82;;;28.98;;
47866;SDS011;33628;50.806;11.586;2023-02-08T00:42:17;67.82;;;26.35;;
47866;SDS011;33628;50.806;11.586;2023-02-08T00:44:44;63.15;;;24.98;;
47866;SDS011;33628;50.806;11.586;2023-02-08T00:47:10;61.55;;;25.30;;
47866;SDS011;33628;50.806;11.586;2023-02-08T00:49:37;60.97;;;24.80;;
47866;SDS011;33628;50.806;11.586;2023-02-08T00:52:04;64.80;;;24.33;;
47866;SDS011;33628;50.806;11.586;2023-02-08T00:54:32;62.20;;;23.95;;
47866;SDS011;33628;50.806;11.586;2023-02-08T00:56:58;63.03;;;24.05;;
47866;SDS011;33628;50.806;11.586;2023-02-08T00:59:25;65.13;;;25.92;;
47866;SDS011;33628;50.806;11.586;2023-02-08T01:01:52;67.05;;;26.38;;
47866;SDS011;33628;50.806;11.586;2023-02-08T01:04:19;68.40;;;25.83;;
47866;SDS011;33628;50.806;11.586;2023-02-08T01:06:46;61.47;;;25.45;;
47866;SDS011;33628;50.806;11.586;2023-02-08T01:09:13;69.75;;;26.85;;
47866;SDS011;33628;50.806;11.586;2023-02-08T01:11:41;65.13;;;25.55;;
47866;SDS011;33628;50.806;11.586;2023-02-08T01:14:08;71.88;;;27.17;;
47866;SDS011;33628;50.806;11.586;2023-02-08T01:16:36;64.70;;;26.08;;
47866;SDS011;33628;50.806;11.586;2023-02-08T01:19:03;59.78;;;25.20;;
47866;SDS011;33628;50.806;11.586;2023-02-08T01:21:34;66.72;;;25.17;;
47866;SDS011;33628;50.806;11.586;2023-02-08T01:24:02;61.97;;;25.52;;
47866;SDS011;33628;50.806;11.586;2023-02-08T01:26:30;61.85;;;24.83;;
47866;SDS011;33628;50.806;11.586;2023-02-08T01:28:58;66.78;;;25.77;;
47866;SDS011;33628;50.806;11.586;2023-02-08T01:31:26;60.53;;;23.95;;
47866;SDS011;33628;50.806;11.586;2023-02-08T01:33:54;58.53;;;23.75;;
47866;SDS011;33628;50.806;11.586;2023-02-08T01:36:21;65.28;;;25.38;;
47866;SDS011;33628;50.806;11.586;2023-02-08T01:38:48;57.53;;;24.23;;
47866;SDS011;33628;50.806;11.586;2023-02-08T01:41:15;62.30;;;22.70;;
47866;SDS011;33628;50.806;11.586;2023-02-08T01:44:02;64.75;;;24.92;;
47866;SDS011;33628;50.806;11.586;2023-02-08T01:46:31;57.88;;;22.45;;
47866;SDS011;33628;50.806;11.586;2023-02-08T01:48:59;61.38;;;24.10;;
47866;SDS011;33628;50.806;11.586;2023-02-08T01:51:29;62.42;;;23.35;;
47866;SDS011;33628;50.806;11.586;2023-02-08T01:53:59;58.92;;;23.95;;
47866;SDS011;33628;50.806;11.586;2023-02-08T01:56:28;55.97;;;23.20;;
47866;SDS011;33628;50.806;11.586;2023-02-08T01:58:57;59.83;;;23.67;;
47866;SDS011;33628;50.806;11.586;2023-02-08T02:01:27;70.22;;;25.00;;
47866;SDS011;33628;50.806;11.586;2023-02-08T02:03:55;59.28;;;25.20;;
47866;SDS011;33628;50.806;11.586;2023-02-08T02:06:23;59.72;;;24.10;;
47866;SDS011;33628;50.806;11.586;2023-02-08T02:08:57;70.68;;;25.20;;
47866;SDS011;33628;50.806;11.586;2023-02-08T02:11:28;64.80;;;23.52;;
47866;SDS011;33628;50.806;11.586;2023-02-08T02:13:54;77.25;;;26.27;;
47866;SDS011;33628;50.806;11.586;2023-02-08T02:16:21;70.50;;;24.73;;
47866;SDS011;33628;50.806;11.586;2023-02-08T02:18:52;66.68;;;25.13;;
47866;SDS011;33628;50.806;11.586;2023-02-08T02:21:33;66.07;;;24.20;;
47866;SDS011;33628;50.806;11.586;2023-02-08T02:27:30;75.35;;;25.83;;
47866;SDS011;33628;50.806;11.586;2023-02-08T02:36:02;68.40;;;24.77;;
47866;SDS011;33628;50.806;11.586;2023-02-08T02:38:39;69.63;;;25.38;;
47866;SDS011;33628;50.806;11.586;2023-02-08T02:41:12;55.13;;;18.52;;
47866;SDS011;33628;50.806;11.586;2023-02-08T02:44:03;60.25;;;22.90;;
47866;SDS011;33628;50.806;11.586;2023-02-08T02:46:32;60.70;;;23.60;;
47866;SDS011;33628;50.806;11.586;2023-02-08T02:49:07;63.83;;;23.77;;
47866;SDS011;33628;50.806;11.586;2023-02-08T02:51:38;64.45;;;23.88;;
47866;SDS011;33628;50.806;11.586;2023-02-08T02:54:10;69.97;;;25.40;;
47866;SDS011;33628;50.806;11.586;2023-02-08T02:56:40;61.20;;;23.13;;
47866;SDS011;33628;50.806;11.586;2023-02-08T02:59:08;67.90;;;24.02;;
47866;SDS011;33628;50.806;11.586;2023-02-08T03:01:36;63.17;;;23.80;;
47866;SDS011;33628;50.806;11.586;2023-02-08T03:04:13;80.78;;;25.02;;
47866;SDS011;33628;50.806;11.586;2023-02-08T03:06:42;69.35;;;24.67;;
47866;SDS011;33628;50.806;11.586;2023-02-08T03:12:20;69.03;;;24.05;;
47866;SDS011;33628;50.806;11.586;2023-02-08T03:14:57;73.68;;;25.00;;
47866;SDS011;33628;50.806;11.586;2023-02-08T03:17:33;66.53;;;25.60;;
47866;SDS011;33628;50.806;11.586;2023-02-08T03:20:07;72.38;;;24.98;;
47866;SDS011;33628;50.806;11.586;2023-02-08T03:22:38;70.32;;;25.38;;
47866;SDS011;33628;50.806;11.586;2023-02-08T03:25:10;64.90;;;24.65;;
47866;SDS011;33628;50.806;11.586;2023-02-08T03:27:41;77.55;;;25.63;;
47866;SDS011;33628;50.806;11.586;2023-02-08T03:30:14;74.72;;;27.10;;
47866;SDS011;33628;50.806;11.586;2023-02-08T03:32:44;75.78;;;26.20;;
47866;SDS011;33628;50.806;11.586;2023-02-08T03:35:15;71.22;;;25.80;;
47866;SDS011;33628;50.806;11.586;2023-02-08T03:37:45;84.07;;;28.75;;
47866;SDS011;33628;50.806;11.586;2023-02-08T03:40:15;69.75;;;25.98;;
47866;SDS011;33628;50.806;11.586;2023-02-08T03:42:45;68.63;;;27.20;;
47866;SDS011;33628;50.806;11.586;2023-02-08T03:45:14;66.85;;;25.58;;
47866;SDS011;33628;50.806;11.586;2023-02-08T03:47:43;71.53;;;25.13;;
47866;SDS011;33628;50.806;11.586;2023-02-08T03:50:11;73.95;;;27.08;;
47866;SDS011;33628;50.806;11.586;2023-02-08T03:52:42;65.57;;;25.05;;
47866;SDS011;33628;50.806;11.586;2023-02-08T03:55:11;87.65;;;28.70;;
47866;SDS011;33628;50.806;11.586;2023-02-08T03:57:41;81.90;;;27.45;;
47866;SDS011;33628;50.806;11.586;2023-02-08T04:00:10;77.07;;;28.10;;
47866;SDS011;33628;50.806;11.586;2023-02-08T04:02:39;76.05;;;27.77;;
47866;SDS011;33628;50.806;11.586;2023-02-08T04:05:09;82.75;;;29.77;;
47866;SDS011;33628;50.806;11.586;2023-02-08T04:07:37;72.45;;;26.38;;
47866;SDS011;33628;50.806;11.586;2023-02-08T04:10:04;80.47;;;29.38;;
47866;SDS011;33628;50.806;11.586;2023-02-08T04:12:31;86.22;;;30.75;;
47866;SDS011;33628;50.806;11.586;2023-02-08T04:14:58;88.47;;;30.70;;
47866;SDS011;33628;50.806;11.586;2023-02-08T04:17:24;86.60;;;30.10;;
47866;SDS011;33628;50.806;11.586;2023-02-08T04:19:51;92.97;;;32.53;;
47866;SDS011;33628;50.806;11.586;2023-02-08T04:22:17;79.25;;;29.33;;
47866;SDS011;33628;50.806;11.586;2023-02-08T04:24:45;85.13;;;29.55;;
47866;SDS011;33628;50.806;11.586;2023-02-08T04:27:12;94.43;;;31.17;;
47866;SDS011;33628;50.806;11.586;2023-02-08T04:29:39;76.20;;;28.75;;
47866;SDS011;33628;50.806;11.586;2023-02-08T04:32:06;78.82;;;28.35;;
47866;SDS011;33628;50.806;11.586;2023-02-08T04:34:36;95.78;;;36.00;;
47866;SDS011;33628;50.806;11.586;2023-02-08T04:37:03;99.72;;;36.85;;
47866;SDS011;33628;50.806;11.586;2023-02-08T04:39:30;81.68;;;30.55;;
47866;SDS011;33628;50.806;11.586;2023-02-08T04:41:58;79.32;;;30.50;;
47866;SDS011;33628;50.806;11.586;2023-02-08T04:44:24;73.30;;;27.45;;
47866;SDS011;33628;50.806;11.586;2023-02-08T04:46:52;67.50;;;26.77;;
47866;SDS011;33628;50.806;11.586;2023-02-08T04:49:18;72.25;;;27.95;;
47866;SDS011;33628;50.806;11.586;2023-02-08T04:51:45;74.35;;;28.50;;
47866;SDS011;33628;50.806;11.586;2023-02-08T04:54:12;69.85;;;26.38;;
47866;SDS011;33628;50.806;11.586;2023-02-08T04:56:38;71.25;;;25.35;;
47866;SDS011;33628;50.806;11.586;2023-02-08T04:59:06;62.33;;;25.85;;
47866;SDS011;33628;50.806;11.586;2023-02-08T05:01:33;62.75;;;26.88;;
47866;SDS011;33628;50.806;11.586;2023-02-08T05:04:00;65.03;;;24.40;;
47866;SDS011;33628;50.806;11.586;2023-02-08T05:06:26;68.28;;;26.98;;
47866;SDS011;33628;50.806;11.586;2023-02-08T05:08:53;73.25;;;28.35;;
47866;SDS011;33628;50.806;11.586;2023-02-08T05:11:20;71.13;;;27.10;;
47866;SDS011;33628;50.806;11.586;2023-02-08T05:13:46;69.28;;;25.85;;
47866;SDS011;33628;50.806;11.586;2023-02-08T05:16:14;62.55;;;25.15;;
47866;SDS011;33628;50.806;11.586;2023-02-08T05:18:43;78.85;;;29.60;;
47866;SDS011;33628;50.806;11.586;2023-02-08T05:21:10;72.38;;;27.15;;
47866;SDS011;33628;50.806;11.586;2023-02-08T05:23:37;66.63;;;25.67;;
47866;SDS011;33628;50.806;11.586;2023-02-08T05:26:04;64.82;;;25.80;;
47866;SDS011;33628;50.806;11.586;2023-02-08T05:28:31;69.68;;;23.45;;
47866;SDS011;33628;50.806;11.586;2023-02-08T05:30:58;63.88;;;24.92;;
47866;SDS011;33628;50.806;11.586;2023-02-08T05:33:26;66.20;;;23.88;;
47866;SDS011;33628;50.806;11.586;2023-02-08T05:35:53;72.50;;;26.27;;
47866;SDS011;33628;50.806;11.586;2023-02-08T05:38:19;61.65;;;25.80;;
47866;SDS011;33628;50.806;11.586;2023-02-08T05:40:46;73.50;;;26.42;;
47866;SDS011;33628;50.806;11.586;2023-02-08T05:43:12;74.13;;;26.05;;
47866;SDS011;33628;50.806;11.586;2023-02-08T05:45:39;69.82;;;26.77;;
47866;SDS011;33628;50.806;11.586;2023-02-08T05:48:06;72.78;;;24.88;;
47866;SDS011;33628;50.806;11.586;2023-02-08T05:50:35;70.70;;;24.52;;
47866;SDS011;33628;50.806;11.586;2023-02-08T05:53:02;58.50;;;25.23;;
47866;SDS011;33628;50.806;11.586;2023-02-08T05:55:28;64.22;;;24.63;;
47866;SDS011;33628;50.806;11.586;2023-02-08T05:57:55;66.68;;;24.85;;
47866;SDS011;33628;50.806;11.586;2023-02-08T06:00:22;61.65;;;23.55;;
47866;SDS011;33628;50.806;11.586;2023-02-08T06:02:48;65.88;;;25.08;;
47866;SDS011;33628;50.806;11.586;2023-02-08T06:05:15;75.25;;;27.52;;
47866;SDS011;33628;50.806;11.586;2023-02-08T06:07:46;69.10;;;25.52;;
47866;SDS011;33628;50.806;11.586;2023-02-08T06:10:12;61.55;;;23.42;;
47866;SDS011;33628;50.806;11.586;2023-02-08T06:12:39;61.40;;;24.35;;
47866;SDS011;33628;50.806;11.586;2023-02-08T06:15:06;64.72;;;24.77;;
47866;SDS011;33628;50.806;11.586;2023-02-08T06:17:33;70.57;;;26.23;;
47866;SDS011;33628;50.806;11.586;2023-02-08T06:20:01;66.80;;;26.05;;
47866;SDS011;33628;50.806;11.586;2023-02-08T06:22:28;75.13;;;26.45;;
47866;SDS011;33628;50.806;11.586;2023-02-08T06:24:57;69.30;;;27.00;;
47866;SDS011;33628;50.806;11.586;2023-02-08T06:27:23;70.15;;;26.35;;
47866;SDS011;33628;50.806;11.586;2023-02-08T06:29:50;74.68;;;27.27;;
47866;SDS011;33628;50.806;11.586;2023-02-08T06:32:17;66.60;;;26.63;;
47866;SDS011;33628;50.806;11.586;2023-02-08T06:34:44;71.38;;;27.90;;
47866;SDS011;33628;50.806;11.586;2023-02-08T06:37:10;73.78;;;24.90;;
47866;SDS011;33628;50.806;11.586;2023-02-08T06:39:37;65.38;;;25.92;;
47866;SDS011;33628;50.806;11.586;2023-02-08T06:42:05;77.70;;;27.05;;
47866;SDS011;33628;50.806;11.586;2023-02-08T06:44:32;73.60;;;28.30;;
47866;SDS011;33628;50.806;11.586;2023-02-08T06:46:59;88.55;;;29.40;;
47866;SDS011;33628;50.806;11.586;2023-02-08T06:49:25;74.07;;;29.35;;
47866;SDS011;33628;50.806;11.586;2023-02-08T06:51:52;78.82;;;28.73;;
47866;SDS011;33628;50.806;11.586;2023-02-08T06:54:19;85.82;;;30.33;;
47866;SDS011;33628;50.806;11.586;2023-02-08T06:56:46;86.68;;;32.10;;
47866;SDS011;33628;50.806;11.586;2023-02-08T06:59:14;98.28;;;33.85;;
47866;SDS011;33628;50.806;11.586;2023-02-08T07:01:41;75.85;;;28.95;;
47866;SDS011;33628;50.806;11.586;2023-02-08T07:04:08;79.95;;;30.10;;
47866;SDS011;33628;50.806;11.586;2023-02-08T07:06:35;75.60;;;28.60;;
47866;SDS011;33628;50.806;11.586;2023-02-08T07:09:02;77.07;;;29.52;;
47866;SDS011;33628;50.806;11.586;2023-02-08T07:11:29;66.63;;;27.27;;
47866;SDS011;33628;50.806;11.586;2023-02-08T07:13:56;73.38;;;26.13;;
47866;SDS011;33628;50.806;11.586;2023-02-08T07:16:24;76.28;;;28.40;;
47866;SDS011;33628;50.806;11.586;2023-02-08T07:18:50;84.60;;;30.33;;
47866;SDS011;33628;50.806;11.586;2023-02-08T07:21:17;67.90;;;27.60;;
47866;SDS011;33628;50.806;11.586;2023-02-08T07:23:44;68.97;;;26.15;;
47866;SDS011;33628;50.806;11.586;2023-02-08T07:26:11;62.30;;;25.58;;
47866;SDS011;33628;50.806;11.586;2023-02-08T07:28:42;60.47;;;24.73;;
47866;SDS011;33628;50.806;11.586;2023-02-08T07:31:09;65.47;;;27.10;;
47866;SDS011;33628;50.806;11.586;2023-02-08T07:33:38;58.60;;;26.15;;
47866;SDS011;33628;50.806;11.586;2023-02-08T07:36:08;58.83;;;23.65;;
47866;SDS011;33628;50.806;11.586;2023-02-08T07:38:35;61.67;;;25.85;;
47866;SDS011;33628;50.806;11.586;2023-02-08T07:41:03;57.65;;;23.10;;
47866;SDS011;33628;50.806;11.586;2023-02-08T07:43:32;59.10;;;26.10;;
47866;SDS011;33628;50.806;11.586;2023-02-08T07:46:04;59.70;;;25.83;;
47866;SDS011;33628;50.806;11.586;2023-02-08T07:48:31;65.13;;;25.95;;
47866;SDS011;33628;50.806;11.586;2023-02-08T07:51:00;69.78;;;26.30;;
47866;SDS011;33628;50.806;11.586;2023-02-08T07:53:27;59.00;;;25.63;;
47866;SDS011;33628;50.806;11.586;2023-02-08T07:55:54;62.83;;;24.70;;
47866;SDS011;33628;50.806;11.586;2023-02-08T07:58:21;54.08;;;24.33;;
47866;SDS011;33628;50.806;11.586;2023-02-08T08:00:48;52.13;;;22.13;;
47866;SDS011;33628;50.806;11.586;2023-02-08T08:03:15;53.38;;;22.73;;
47866;SDS011;33628;50.806;11.586;2023-02-08T08:05:42;53.47;;;23.20;;
47866;SDS011;33628;50.806;11.586;2023-02-08T08:08:10;57.38;;;24.92;;
47866;SDS011;33628;50.806;11.586;2023-02-08T08:10:37;56.33;;;23.90;;
47866;SDS011;33628;50.806;11.586;2023-02-08T08:13:04;58.10;;;25.13;;
47866;SDS011;33628;50.806;11.586;2023-02-08T08:15:31;49.22;;;22.92;;
47866;SDS011;33628;50.806;11.586;2023-02-08T08:17:57;52.53;;;21.48;;
47866;SDS011;33628;50.806;11.586;2023-02-08T08:20:24;51.13;;;20.80;;
47866;SDS011;33628;50.806;11.586;2023-02-08T08:22:51;48.33;;;20.75;;
47866;SDS011;33628;50.806;11.586;2023-02-08T08:25:19;51.28;;;19.83;;
47866;SDS011;33628;50.806;11.586;2023-02-08T08:27:45;47.72;;;20.83;;
47866;SDS011;33628;50.806;11.586;2023-02-08T08:30:13;47.28;;;20.80;;
47866;SDS011;33628;50.806;11.586;2023-02-08T08:32:41;45.75;;;19.90;;
47866;SDS011;33628;50.806;11.586;2023-02-08T08:35:07;52.75;;;25.95;;
47866;SDS011;33628;50.806;11.586;2023-02-08T08:37:34;78.05;;;37.22;;
47866;SDS011;33628;50.806;11.586;2023-02-08T08:40:01;119.00;;;56.53;;
47866;SDS011;33628;50.806;11.586;2023-02-08T08:42:31;55.45;;;27.73;;
47866;SDS011;33628;50.806;11.586;2023-02-08T08:44:57;45.83;;;21.95;;
47866;SDS011;33628;50.806;11.586;2023-02-08T08:47:24;48.05;;;23.08;;
47866;SDS011;33628;50.806;11.586;2023-02-08T08:49:51;39.78;;;19.20;;
47866;SDS011;33628;50.806;11.586;2023-02-08T08:52:18;34.45;;;17.98;;
47866;SDS011;33628;50.806;11.586;2023-02-08T08:54:44;37.90;;;18.23;;
47866;SDS011;33628;50.806;11.586;2023-02-08T08:57:11;33.38;;;16.17;;
47866;SDS011;33628;50.806;11.586;2023-02-08T08:59:39;31.83;;;17.92;;
47866;SDS011;33628;50.806;11.586;2023-02-08T09:02:06;31.83;;;17.55;;
47866;SDS011;33628;50.806;11.586;2023-02-08T09:04:34;31.20;;;18.02;;
47866;SDS011;33628;50.806;11.586;2023-02-08T09:07:01;33.85;;;19.00;;
47866;SDS011;33628;50.806;11.586;2023-02-08T09:09:28;34.78;;;18.10;;
47866;SDS011;33628;50.806;11.586;2023-02-08T09:11:54;33.53;;;19.25;;
47866;SDS011;33628;50.806;11.586;2023-02-08T09:14:21;33.65;;;19.80;;
47866;SDS011;33628;50.806;11.586;2023-02-08T09:16:49;30.95;;;18.55;;
47866;SDS011;33628;50.806;11.586;2023-02-08T09:19:17;36.47;;;21.13;;
47866;SDS011;33628;50.806;11.586;2023-02-08T09:21:43;30.80;;;19.80;;
47866;SDS011;33628;50.806;11.586;2023-02-08T09:24:10;34.13;;;20.00;;
47866;SDS011;33628;50.806;11.586;2023-02-08T09:26:37;31.77;;;18.40;;
47866;SDS011;33628;50.806;11.586;2023-02-08T09:29:04;29.25;;;19.38;;
47866;SDS011;33628;50.806;11.586;2023-02-08T09:31:31;31.95;;;19.27;;
47866;SDS011;33628;50.806;11.586;2023-02-08T09:34:03;35.63;;;20.38;;
47866;SDS011;33628;50.806;11.586;2023-02-08T09:36:31;37.92;;;20.85;;
47866;SDS011;33628;50.806;11.586;2023-02-08T09:39:01;33.28;;;21.15;;
47866;SDS011;33628;50.806;11.586;2023-02-08T09:41:37;31.70;;;20.70;;
47866;SDS011;33628;50.806;11.586;2023-02-08T09:44:28;32.65;;;19.88;;
47866;SDS011;33628;50.806;11.586;2023-02-08T09:46:59;33.88;;;21.48;;
47866;SDS011;33628;50.806;11.586;2023-02-08T09:49:29;34.35;;;20.52;;
47866;SDS011;33628;50.806;11.586;2023-02-08T09:51:59;31.73;;;20.10;;
47866;SDS011;33628;50.806;11.586;2023-02-08T09:54:30;32.17;;;21.58;;
47866;SDS011;33628;50.806;11.586;2023-02-08T09:56:58;35.00;;;21.45;;
47866;SDS011;33628;50.806;11.586;2023-02-08T09:59:27;33.05;;;21.90;;
47866;SDS011;33628;50.806;11.586;2023-02-08T10:01:57;40.03;;;23.02;;
47866;SDS011;33628;50.806;11.586;2023-02-08T10:04:27;35.05;;;22.08;;
47866;SDS011;33628;50.806;11.586;2023-02-08T10:06:59;38.85;;;23.73;;
47866;SDS011;33628;50.806;11.586;2023-02-08T10:09:26;37.65;;;23.85;;
47866;SDS011;33628;50.806;11.586;2023-02-08T10:11:55;36.30;;;22.08;;
47866;SDS011;33628;50.806;11.586;2023-02-08T10:14:37;35.88;;;23.10;;
47866;SDS011;33628;50.806;11.586;2023-02-08T10:17:14;33.88;;;22.33;;
47866;SDS011;33628;50.806;11.586;2023-02-08T10:20:11;38.80;;;23.63;;
47866;SDS011;33628;50.806;11.586;2023-02-08T10:22:45;37.35;;;24.55;;
47866;SDS011;33628;50.806;11.586;2023-02-08T10:25:27;34.42;;;22.83;;
47866;SDS011;33628;50.806;11.586;2023-02-08T10:28:09;30.55;;;21.95;;
47866;SDS011;33628;50.806;11.586;2023-02-08T10:30:47;28.15;;;20.13;;
47866;SDS011;33628;50.806;11.586;2023-02-08T10:33:20;30.38;;;20.55;;
47866;SDS011;33628;50.806;11.586;2023-02-08T10:35:53;34.15;;;21.70;;
47866;SDS011;33628;50.806;11.586;2023-02-08T10:38:24;30.88;;;20.58;;
47866;SDS011;33628;50.806;11.586;2023-02-08T10:40:52;32.58;;;20.17;;
47866;SDS011;33628;50.806;11.586;2023-02-08T10:43:23;30.83;;;19.95;;
47866;SDS011;33628;50.806;11.586;2023-02-08T10:45:57;28.40;;;19.85;;
47866;SDS011;33628;50.806;11.586;2023-02-08T10:48:31;31.23;;;21.27;;
47866;SDS011;33628;50.806;11.586;2023-02-08T10:51:05;32.25;;;21.27;;
47866;SDS011;33628;50.806;11.586;2023-02-08T10:53:32;31.90;;;20.95;;
47866;SDS011;33628;50.806;11.586;2023-02-08T10:55:58;28.80;;;18.83;;
47866;SDS011;33628;50.806;11.586;2023-02-08T10:58:25;34.53;;;20.50;;
47866;SDS011;33628;50.806;11.586;2023-02-08T11:00:52;30.60;;;20.08;;
47866;SDS011;33628;50.806;11.586;2023-02-08T11:03:20;21.95;;;17.80;;
47866;SDS011;33628;50.806;11.586;2023-02-08T11:05:47;27.10;;;18.42;;
47866;SDS011;33628;50.806;11.586;2023-02-08T11:08:16;28.45;;;18.17;;
47866;SDS011;33628;50.806;11.586;2023-02-08T11:10:54;26.02;;;17.77;;
47866;SDS011;33628;50.806;11.586;2023-02-08T11:13:23;27.10;;;17.50;;
47866;SDS011;33628;50.806;11.586;2023-02-08T11:15:51;24.38;;;16.40;;
47866;SDS011;33628;50.806;11.586;2023-02-08T11:18:21;25.35;;;15.60;;
47866;SDS011;33628;50.806;11.586;2023-02-08T11:20:50;23.58;;;14.43;;
47866;SDS011;33628;50.806;11.586;2023-02-08T11:23:20;20.48;;;15.05;;
47866;SDS011;33628;50.806;11.586;2023-02-08T11:25:49;22.75;;;14.35;;
47866;SDS011;33628;50.806;11.586;2023-02-08T11:28:24;20.42;;;14.30;;
47866;SDS011;33628;50.806;11.586;2023-02-08T11:30:57;21.77;;;14.25;;
47866;SDS011;33628;50.806;11.586;2023-02-08T11:33:26;25.60;;;13.98;;
47866;SDS011;33628;50.806;11.586;2023-02-08T11:35:54;24.17;;;14.52;;
47866;SDS011;33628;50.806;11.586;2023-02-08T11:38:25;23.33;;;13.93;;
47866;SDS011;33628;50.806;11.586;2023-02-08T11:40:53;24.48;;;12.77;;
47866;SDS011;33628;50.806;11.586;2023-02-08T11:43:22;19.77;;;12.25;;
47866;SDS011;33628;50.806;11.586;2023-02-08T11:45:51;20.67;;;13.50;;
47866;SDS011;33628;50.806;11.586;2023-02-08T11:48:20;24.08;;;12.93;;
47866;SDS011;33628;50.806;11.586;2023-02-08T11:50:52;24.45;;;12.77;;
47866;SDS011;33628;50.806;11.586;2023-02-08T11:53:21;22.70;;;12.95;;
47866;SDS011;33628;50.806;11.586;2023-02-08T11:58:54;22.60;;;13.55;;
47866;SDS011;33628;50.806;11.586;2023-02-08T12:01:24;22.40;;;12.55;;
47866;SDS011;33628;50.806;11.586;2023-02-08T12:03:53;28.70;;;12.98;;
47866;SDS011;33628;50.806;11.586;2023-02-08T12:09:45;20.35;;;11.45;;
47866;SDS011;33628;50.806;11.586;2023-02-08T12:12:33;19.20;;;11.13;;
47866;SDS011;33628;50.806;11.586;2023-02-08T12:15:15;17.63;;;10.10;;
47866;SDS011;33628;50.806;11.586;2023-02-08T12:17:54;20.00;;;10.48;;
47866;SDS011;33628;50.806;11.586;2023-02-08T12:20:43;21.35;;;11.60;;
47866;SDS011;33628;50.806;11.586;2023-02-08T12:26:11;21.05;;;11.30;;
47866;SDS011;33628;50.806;11.586;2023-02-08T12:28:45;21.75;;;10.85;;
47866;SDS011;33628;50.806;11.586;2023-02-08T12:31:33;27.58;;;14.18;;
47866;SDS011;33628;50.806;11.586;2023-02-08T12:34:13;22.58;;;12.40;;
47866;SDS011;33628;50.806;11.586;2023-02-08T12:36:46;20.83;;;9.68;;
47866;SDS011;33628;50.806;11.586;2023-02-08T12:39:47;22.63;;;9.80;;
47866;SDS011;33628;50.806;11.586;2023-02-08T12:42:41;25.92;;;11.55;;
47866;SDS011;33628;50.806;11.586;2023-02-08T12:45:24;23.95;;;11.55;;
47866;SDS011;33628;50.806;11.586;2023-02-08T12:48:11;25.25;;;11.32;;
47866;SDS011;33628;50.806;11.586;2023-02-08T12:50:54;23.75;;;11.13;;
47866;SDS011;33628;50.806;11.586;2023-02-08T12:53:26;22.60;;;10.23;;
47866;SDS011;33628;50.806;11.586;2023-02-08T12:55:57;23.98;;;11.25;;
47866;SDS011;33628;50.806;11.586;2023-02-08T12:58:28;21.70;;;10.50;;
47866;SDS011;33628;50.806;11.586;2023-02-08T13:00:57;19.63;;;10.65;;
47866;SDS011;33628;50.806;11.586;2023-02-08T13:03:30;22.45;;;10.32;;
47866;SDS011;33628;50.806;11.586;2023-02-08T13:06:02;19.27;;;9.48;;
47866;SDS011;33628;50.806;11.586;2023-02-08T13:08:31;23.50;;;9.95;;
47866;SDS011;33628;50.806;11.586;2023-02-08T13:11:02;21.73;;;9.43;;
47866;SDS011;33628;50.806;11.586;2023-02-08T13:13:35;20.58;;;10.43;;
47866;SDS011;33628;50.806;11.586;2023-02-08T13:16:06;19.73;;;8.77;;
47866;SDS011;33628;50.806;11.586;2023-02-08T13:18:36;20.30;;;8.40;;
47866;SDS011;33628;50.806;11.586;2023-02-08T13:21:07;16.35;;;7.53;;
47866;SDS011;33628;50.806;11.586;2023-02-08T13:23:38;15.55;;;8.50;;
47866;SDS011;33628;50.806;11.586;2023-02-08T13:26:07;17.70;;;7.80;;
47866;SDS011;33628;50.806;11.586;2023-02-08T13:28:39;16.85;;;7.78;;
47866;SDS011;33628;50.806;11.586;2023-02-08T13:31:10;12.77;;;6.78;;
47866;SDS011;33628;50.806;11.586;2023-02-08T13:33:38;14.18;;;6.97;;
47866;SDS011;33628;50.806;11.586;2023-02-08T13:36:11;16.73;;;8.27;;
47866;SDS011;33628;50.806;11.586;2023-02-08T13:38:45;15.80;;;7.57;;
47866;SDS011;33628;50.806;11.586;2023-02-08T13:41:15;14.63;;;7.60;;
47866;SDS011;33628;50.806;11.586;2023-02-08T13:43:47;15.45;;;7.40;;
47866;SDS011;33628;50.806;11.586;2023-02-08T13:46:16;17.40;;;9.07;;
47866;SDS011;33628;50.806;11.586;2023-02-08T13:48:45;19.52;;;8.63;;
47866;SDS011;33628;50.806;11.586;2023-02-08T13:54:19;18.30;;;9.68;;
47866;SDS011;33628;50.806;11.586;2023-02-08T13:56:46;21.45;;;10.02;;
47866;SDS011;33628;50.806;11.586;2023-02-08T13:59:25;20.13;;;9.00;;
47866;SDS011;33628;50.806;11.586;2023-02-08T14:02:17;18.95;;;8.98;;
47866;SDS011;33628;50.806;11.586;2023-02-08T14:08:01;24.42;;;10.20;;
47866;SDS011;33628;50.806;11.586;2023-02-08T14:10:30;19.77;;;9.27;;
47866;SDS011;33628;50.806;11.586;2023-02-08T14:13:02;18.85;;;10.20;;
47866;SDS011;33628;50.806;11.586;2023-02-08T14:15:36;19.77;;;10.48;;
47866;SDS011;33628;50.806;11.586;2023-02-08T14:18:04;20.52;;;9.32;;
47866;SDS011;33628;50.806;11.586;2023-02-08T14:21:00;19.13;;;9.98;;
47866;SDS011;33628;50.806;11.586;2023-02-08T14:23:30;21.15;;;9.90;;
47866;SDS011;33628;50.806;11.586;2023-02-08T14:26:01;17.92;;;10.07;;
47866;SDS011;33628;50.806;11.586;2023-02-08T14:28:33;20.73;;;10.73;;
47866;SDS011;33628;50.806;11.586;2023-02-08T14:31:05;18.05;;;8.88;;
47866;SDS011;33628;50.806;11.586;2023-02-08T14:33:34;18.83;;;9.73;;
47866;SDS011;33628;50.806;11.586;2023-02-08T14:36:03;20.98;;;9.52;;
47866;SDS011;33628;50.806;11.586;2023-02-08T14:50:56;15.63;;;8.00;;
47866;SDS011;33628;50.806;11.586;2023-02-08T14:53:35;17.48;;;7.60;;
47866;SDS011;33628;50.806;11.586;2023-02-08T14:56:12;15.30;;;7.95;;
47866;SDS011;33628;50.806;11.586;2023-02-08T14:58:43;16.45;;;8.02;;
47866;SDS011;33628;50.806;11.586;2023-02-08T15:01:12;18.80;;;8.43;;
47866;SDS011;33628;50.806;11.586;2023-02-08T15:03:43;15.13;;;7.47;;
47866;SDS011;33628;50.806;11.586;2023-02-08T15:09:21;14.52;;;6.53;;